Lightning — WDG8552 — position and weather

sailwx.info

Track history (hours):
 
Tides and Currents Weather Stations Pressure Air Temp Water Temp Dewpoint Dewpoint Depression Visibility Wind Speed Wind Dir Waves Ship Positions

Lightning

Owner: Boston Harbor Cruises, Boston, MA. More information available from US FCC via Universal Licensing System and Coast Guard Vessel Documentation Center.

Last reported at 2017-Nov-16 19:20 UTC. Time now 2017-Nov-19 21:58 UTC.
Position N 42°15' W 070°58'.

Length 22 m; draft 2.6 m.

Type: High speed craft. MMSI: 367578720.

Date/timePositionNaut miles runAvg speedWind from/ knotsBaromVisibWave heightAir tempDewpointWater temp
2017-Nov-16 19:20N 42°15' W 070°58'2 7.0
2017-Nov-16 19:00N 42°16' W 070°55'2 4.7
2017-Nov-16 18:28N 42°18' W 070°55'714.5
2017-Nov-16 18:00N 42°22' W 071°03'1 2.4
2017-Nov-16 17:30N 42°21' W 071°01'7 8.8
2017-Nov-16 16:42N 42°16' W 070°55'311.8
2017-Nov-16 16:28N 42°19' W 070°56'613.1
2017-Nov-16 16:00N 42°22' W 071°03'0 0.0
2017-Nov-16 15:30N 42°22' W 071°03'0 0.0
2017-Nov-16 15:01N 42°22' W 071°03'0 0.0
2017-Nov-16 14:30N 42°22' W 071°03'713.4
2017-Nov-16 14:00N 42°18' W 070°55'713.6
2017-Nov-16 13:30N 42°22' W 071°03'712.6
2017-Nov-16 12:59N 42°18' W 070°55'613.0
2017-Nov-16 12:30N 42°22' W 071°03'4 0.4
2017-Nov-16 03:13N 42°19' W 070°59'417.4
2017-Nov-16 03:00N 42°22' W 071°02'1 1.8
2017-Nov-16 02:29N 42°22' W 071°03'7 7.3
2017-Nov-16 01:35N 42°18' W 070°55'326.9
2017-Nov-16 01:29N 42°20' W 070°58'3 6.9
2017-Nov-16 01:00N 42°22' W 071°02'6 6.3
2017-Nov-16 00:04N 42°18' W 070°55'217.3
2017-Nov-15 23:55N 42°20' W 070°57'510.9
2017-Nov-15 23:30N 42°22' W 071°03'713.1
2017-Nov-15 22:59N 42°18' W 070°55'713.9
2017-Nov-15 22:30N 42°22' W 071°03'1 1.7
2017-Nov-15 21:56N 42°22' W 071°02'817.2
2017-Nov-15 21:28N 42°15' W 070°55'5 9.6
2017-Nov-15 20:56N 42°20' W 070°57'510.4
2017-Nov-15 20:30N 42°22' W 071°03'7 5.8
2017-Nov-15 19:23N 42°17' W 070°57'717.4
2017-Nov-15 19:00N 42°22' W 071°03'1 2.4
2017-Nov-15 18:29N 42°21' W 071°01'0 0.2
2017-Nov-15 17:25N 42°21' W 071°01'1 3.3
2017-Nov-15 17:00N 42°22' W 071°03'0 0.0
2017-Nov-15 16:30N 42°22' W 071°03'0 0.4
2017-Nov-15 16:00N 42°22' W 071°03'5 8.7
2017-Nov-15 15:23N 42°20' W 070°56'3 4.0
2017-Nov-15 14:32N 42°20' W 071°00'115.2
2017-Nov-15 14:27N 42°21' W 071°02'0 1.0
2017-Nov-15 14:00N 42°21' W 071°02'4 5.3
2017-Nov-15 13:15N 42°20' W 070°57'417.5
2017-Nov-15 13:00N 42°22' W 071°03'8 0.9
2017-Nov-15 03:44N 42°16' W 070°55'1 3.8
2017-Nov-15 03:20N 42°17' W 070°57'616.3
2017-Nov-15 02:57N 42°22' W 071°02'0 0.5
2017-Nov-15 02:31N 42°21' W 071°02'6 7.6
2017-Nov-15 01:41N 42°18' W 070°55'314.5
2017-Nov-15 01:30N 42°20' W 070°58'3 7.1
2017-Nov-15 01:00N 42°22' W 071°02'6 5.5
2017-Nov-14 23:58N 42°18' W 070°56'613.8
2017-Nov-14 23:30N 42°22' W 071°03'711.7
2017-Nov-14 22:56N 42°18' W 070°55'715.7
2017-Nov-14 22:30N 42°22' W 071°03'1 1.8
2017-Nov-14 22:00N 42°22' W 071°02'811.0
2017-Nov-14 21:17N 42°15' W 070°55'311.2
2017-Nov-14 21:00N 42°19' W 070°56'611.9
2017-Nov-14 20:30N 42°22' W 071°03'4 3.3
2017-Nov-14 19:14N 42°19' W 070°59'418.3
2017-Nov-14 19:00N 42°22' W 071°03'2 3.5
2017-Nov-14 18:30N 42°21' W 071°01'5 6.1
2017-Nov-14 17:36N 42°17' W 070°56'527.2
2017-Nov-14 17:26N 42°20' W 071°00'2 5.5
2017-Nov-14 17:00N 42°22' W 071°03'0 0.0
2017-Nov-14 16:30N 42°22' W 071°03'0 0.8
2017-Nov-14 16:00N 42°22' W 071°02'6 9.2
2017-Nov-14 15:23N 42°19' W 070°56'3 4.3
2017-Nov-14 14:43N 42°16' W 070°55'625.2
2017-Nov-14 14:30N 42°20' W 071°00'2 4.7
2017-Nov-14 14:00N 42°22' W 071°03'610.6
2017-Nov-14 13:24N 42°18' W 070°55'717.4
2017-Nov-14 13:01N 42°22' W 071°03'7 8.5
2017-Nov-14 12:13N 42°18' W 070°55'1 2.5
2017-Nov-14 11:56N 42°19' W 070°56'614.1
2017-Nov-14 11:30N 42°22' W 071°03'712.5
2017-Nov-14 10:58N 42°18' W 070°55'3 4.9
2017-Nov-14 10:24N 42°15' W 070°55'0 0.1
2017-Nov-14 03:41N 42°16' W 070°55'4 9.1
2017-Nov-14 03:13N 42°19' W 070°59'312.4
2017-Nov-14 02:56N 42°22' W 071°02'0 0.4
2017-Nov-14 02:30N 42°22' W 071°02'6 7.0
2017-Nov-14 01:37N 42°18' W 070°55'319.4
2017-Nov-14 01:29N 42°20' W 070°58'3 7.0
2017-Nov-14 01:00N 42°22' W 071°02'6 6.4
2017-Nov-14 00:04N 42°18' W 070°55'518.0
2017-Nov-13 23:49N 42°21' W 071°00'2 6.9
2017-Nov-13 23:30N 42°22' W 071°03'710.5
2017-Nov-13 22:52N 42°18' W 070°55'717.9
2017-Nov-13 22:29N 42°22' W 071°03'1 1.8
2017-Nov-13 21:57N 42°22' W 071°02'  
2017-Nov-11 04:59N 42°15' W 070°58'2 4.7
2017-Nov-11 04:29N 42°16' W 070°55'816.1
2017-Nov-11 04:01N 42°21' W 071°02'5 9.2
2017-Nov-11 03:30N 42°19' W 070°57'4 8.0
2017-Nov-11 03:00N 42°15' W 070°55'713.5
2017-Nov-11 02:30N 42°21' W 071°01'1 2.9
2017-Nov-11 02:00N 42°22' W 071°02'0 0.3
2017-Nov-11 00:44N 42°22' W 071°02'1 0.5
2017-Nov-10 22:55N 42°22' W 071°03'912.3
2017-Nov-10 22:14N 42°15' W 070°55'3 8.2
2017-Nov-10 21:52N 42°18' W 070°55'718.2
2017-Nov-10 21:30N 42°22' W 071°03'610.7
2017-Nov-10 20:59N 42°18' W 070°58'2 3.1
2017-Nov-10 20:20N 42°18' W 070°55'0 1.4
2017-Nov-10 19:59N 42°18' W 070°56'612.8
2017-Nov-10 19:30N 42°22' W 071°03'810.3
2017-Nov-10 18:43N 42°16' W 070°55'210.1
2017-Nov-10 18:29N 42°18' W 070°55'714.2
2017-Nov-10 18:01N 42°22' W 071°03'2 4.4
2017-Nov-10 17:30N 42°21' W 071°00'6 7.5
2017-Nov-10 16:42N 42°16' W 070°56'412.6
2017-Nov-10 16:21N 42°20' W 070°58'412.0
2017-Nov-10 16:00N 42°22' W 071°03'2 3.1
2017-Nov-10 15:30N 42°21' W 071°01'5 5.2
2017-Nov-10 14:38N 42°19' W 070°56'528.8
2017-Nov-10 14:28N 42°21' W 071°01'1 2.1
2017-Nov-10 14:01N 42°22' W 071°02'4 5.4
2017-Nov-10 13:14N 42°20' W 070°57'520.7
2017-Nov-10 13:01N 42°22' W 071°03'7 9.5
2017-Nov-10 12:18N 42°18' W 070°55'1 4.3
2017-Nov-10 11:59N 42°19' W 070°56'510.7
2017-Nov-10 11:30N 42°22' W 071°02'611.6
2017-Nov-10 10:58N 42°18' W 070°55'2 3.7
2017-Nov-10 10:21N 42°16' W 070°55'0 0.1
2017-Nov-10 02:56N 42°15' W 070°55'614.1
2017-Nov-10 02:31N 42°20' W 070°60'3 5.7
2017-Nov-10 02:01N 42°22' W 071°03'916.3
2017-Nov-10 01:29N 42°15' W 070°55'4 8.2
2017-Nov-10 01:00N 42°18' W 070°59'5 9.6
2017-Nov-10 00:30N 42°22' W 071°03'816.3
2017-Nov-10 00:00N 42°16' W 070°55'2 4.6
2017-Nov-09 23:31N 42°18' W 070°55'713.4
2017-Nov-09 23:00N 42°22' W 071°03'4 8.5
2017-Nov-09 22:31N 42°19' W 070°59'4 7.2
2017-Nov-09 22:00N 42°16' W 070°56'815.5
2017-Nov-09 21:30N 42°22' W 071°03'5 9.7
2017-Nov-09 21:00N 42°18' W 070°58'2 3.8
2017-Nov-09 20:23N 42°17' W 070°56'2 4.6
2017-Nov-09 19:58N 42°19' W 070°56'612.9
2017-Nov-09 19:30N 42°22' W 071°03'3 2.4
2017-Nov-09 18:14N 42°20' W 070°59'312.6
2017-Nov-09 18:00N 42°22' W 071°03'3 6.3
2017-Nov-09 17:30N 42°20' W 070°60'4 3.4
2017-Nov-09 16:27N 42°18' W 070°55'715.1
2017-Nov-09 16:00N 42°22' W 071°03'0 0.0
2017-Nov-09 15:30N 42°22' W 071°03'0 0.0
2017-Nov-09 15:00N 42°22' W 071°03'0 0.0
2017-Nov-09 14:30N 42°22' W 071°03'711.9
2017-Nov-09 13:56N 42°18' W 070°55'715.5
2017-Nov-09 13:30N 42°22' W 071°03'712.2
2017-Nov-09 12:56N 42°18' W 070°55'614.8
2017-Nov-09 12:30N 42°22' W 071°03'612.8
2017-Nov-09 12:00N 42°18' W 070°55'3 5.9
2017-Nov-09 11:30N 42°15' W 070°55'3 0.4
2017-Nov-09 03:16N 42°18' W 070°58'515.9
2017-Nov-09 02:58N 42°22' W 071°02'1 1.5
2017-Nov-09 02:30N 42°22' W 071°03'7 7.1
2017-Nov-09 01:34N 42°18' W 070°55'226.0
2017-Nov-09 01:29N 42°20' W 070°57'4 8.1
2017-Nov-09 01:00N 42°22' W 071°02'7 9.1
2017-Nov-09 00:12N 42°16' W 070°55'211.9
2017-Nov-08 23:59N 42°18' W 070°56'613.2
2017-Nov-08 23:30N 42°22' W 071°03'711.5
2017-Nov-08 22:55N 42°18' W 070°55'716.2
2017-Nov-08 22:30N 42°22' W 071°03'1 2.0
2017-Nov-08 22:00N 42°22' W 071°02'816.3
2017-Nov-08 21:30N 42°15' W 070°55'5 8.6
2017-Nov-08 20:55N 42°20' W 070°58'410.1
2017-Nov-08 20:30N 42°22' W 071°03'7 5.6
2017-Nov-08 19:19N 42°17' W 070°57'721.3
2017-Nov-08 19:00N 42°22' W 071°03'2 3.4
2017-Nov-08 18:30N 42°21' W 071°01'5 5.7
2017-Nov-08 17:37N 42°17' W 070°57'622.5
2017-Nov-08 17:21N 42°21' W 071°02'1 1.7
2017-Nov-08 17:00N 42°22' W 071°03'0 0.0
2017-Nov-08 16:30N 42°22' W 071°03'0 0.4
2017-Nov-08 16:00N 42°22' W 071°03'2 4.8
2017-Nov-08 15:30N 42°20' W 071°00'2 1.8
2017-Nov-08 14:36N 42°19' W 070°59'223.6
2017-Nov-08 14:30N 42°21' W 071°01'1 1.9
2017-Nov-08 14:00N 42°21' W 071°02'610.3
2017-Nov-08 13:26N 42°18' W 070°55'715.8
2017-Nov-08 13:00N 42°22' W 071°03'710.0
2017-Nov-08 12:20N 42°18' W 070°55'0 0.5
2017-Nov-08 11:59N 42°18' W 070°55'713.4
2017-Nov-08 11:30N 42°22' W 071°03'711.4
2017-Nov-08 10:55N 42°18' W 070°55'2 0.3
2017-Nov-08 02:33N 42°20' W 070°57'229.1
2017-Nov-08 02:29N 42°20' W 070°60'3 5.2
2017-Nov-08 02:00N 42°22' W 071°03'8 9.0
2017-Nov-08 01:08N 42°16' W 070°56'524.9
2017-Nov-08 00:57N 42°19' W 070°60'3 7.5
2017-Nov-08 00:30N 42°22' W 071°03'816.1
2017-Nov-08 00:00N 42°16' W 070°55'4 5.8
2017-Nov-07 23:23N 42°19' W 070°57'514.1
2017-Nov-07 23:00N 42°22' W 071°03'4 8.0
2017-Nov-07 22:29N 42°19' W 070°59'3 6.8
2017-Nov-07 22:00N 42°16' W 070°56'714.2
2017-Nov-07 21:29N 42°22' W 071°03'4 8.9
2017-Nov-07 21:00N 42°19' W 070°59'4 6.7
2017-Nov-07 20:27N 42°16' W 070°56'2 5.1
2017-Nov-07 20:00N 42°18' W 070°55'713.3
2017-Nov-07 19:30N 42°22' W 071°03'7 7.0
2017-Nov-07 18:33N 42°18' W 070°55'614.0
2017-Nov-07 18:09N 42°21' W 071°02'1 6.9
2017-Nov-07 17:59N 42°22' W 071°03'4 8.1
2017-Nov-07 17:27N 42°19' W 070°59'3 3.1
2017-Nov-07 16:34N 42°18' W 070°55'0 0.1
2017-Nov-07 16:28N 42°18' W 070°55'714.5
2017-Nov-07 16:00N 42°22' W 071°03'0 0.0
2017-Nov-07 15:30N 42°22' W 071°03'0 0.0
2017-Nov-07 15:00N 42°22' W 071°03'0 0.0
2017-Nov-07 14:30N 42°22' W 071°03'5 6.7
2017-Nov-07 13:48N 42°20' W 070°57'516.5
2017-Nov-07 13:30N 42°22' W 071°03'5 7.4
2017-Nov-07 12:53N 42°20' W 070°57'411.4
2017-Nov-07 12:31N 42°22' W 071°03'710.7
2017-Nov-07 11:54N 42°18' W 070°55'0 0.0
2017-Nov-07 02:42N 42°18' W 070°55'420.5
2017-Nov-07 02:30N 42°20' W 070°59'3 5.6
2017-Nov-07 02:00N 42°22' W 071°03'916.8
2017-Nov-07 01:30N 42°15' W 070°55'710.8
2017-Nov-07 00:54N 42°20' W 071°01'2 5.7
2017-Nov-07 00:30N 42°22' W 071°03'816.9
2017-Nov-07 00:00N 42°16' W 070°55'3 5.0
2017-Nov-06 23:29N 42°18' W 070°55'713.9
2017-Nov-06 23:00N 42°22' W 071°03'4 8.3
2017-Nov-06 22:30N 42°19' W 070°59'3 4.6
2017-Nov-06 21:53N 42°18' W 070°55'717.9
2017-Nov-06 21:30N 42°22' W 071°03'8 7.7
2017-Nov-06 20:28N 42°16' W 070°55'  
Track history (hours):
 
Tides and Currents Weather Stations Pressure Air Temp Water Temp Dewpoint Dewpoint Depression Visibility Wind Speed Wind Dir Waves Ship Positions

Lightning

Owner: Boston Harbor Cruises, Boston, MA. More information available from US FCC via Universal Licensing System and Coast Guard Vessel Documentation Center.

Last reported at 2017-Nov-16 19:20 UTC. Time now 2017-Nov-19 21:58 UTC.
Position N 42°15' W 070°58'.

Length 22 m; draft 2.6 m.

Type: High speed craft. MMSI: 367578720.

Date/timePositionNaut miles runAvg speedWind from/ knotsBaromVisibWave heightAir tempDewpointWater temp
2017-Nov-16 19:20N 42°15' W 070°58'2 7.0
2017-Nov-16 19:00N 42°16' W 070°55'2 4.7
2017-Nov-16 18:28N 42°18' W 070°55'714.5
2017-Nov-16 18:00N 42°22' W 071°03'1 2.4
2017-Nov-16 17:30N 42°21' W 071°01'7 8.8
2017-Nov-16 16:42N 42°16' W 070°55'311.8
2017-Nov-16 16:28N 42°19' W 070°56'613.1
2017-Nov-16 16:00N 42°22' W 071°03'0 0.0
2017-Nov-16 15:30N 42°22' W 071°03'0 0.0
2017-Nov-16 15:01N 42°22' W 071°03'0 0.0
2017-Nov-16 14:30N 42°22' W 071°03'713.4
2017-Nov-16 14:00N 42°18' W 070°55'713.6
2017-Nov-16 13:30N 42°22' W 071°03'712.6
2017-Nov-16 12:59N 42°18' W 070°55'613.0
2017-Nov-16 12:30N 42°22' W 071°03'4 0.4
2017-Nov-16 03:13N 42°19' W 070°59'417.4
2017-Nov-16 03:00N 42°22' W 071°02'1 1.8
2017-Nov-16 02:29N 42°22' W 071°03'7 7.3
2017-Nov-16 01:35N 42°18' W 070°55'326.9
2017-Nov-16 01:29N 42°20' W 070°58'3 6.9
2017-Nov-16 01:00N 42°22' W 071°02'6 6.3
2017-Nov-16 00:04N 42°18' W 070°55'217.3
2017-Nov-15 23:55N 42°20' W 070°57'510.9
2017-Nov-15 23:30N 42°22' W 071°03'713.1
2017-Nov-15 22:59N 42°18' W 070°55'713.9
2017-Nov-15 22:30N 42°22' W 071°03'1 1.7
2017-Nov-15 21:56N 42°22' W 071°02'817.2
2017-Nov-15 21:28N 42°15' W 070°55'5 9.6
2017-Nov-15 20:56N 42°20' W 070°57'510.4
2017-Nov-15 20:30N 42°22' W 071°03'7 5.8
2017-Nov-15 19:23N 42°17' W 070°57'717.4
2017-Nov-15 19:00N 42°22' W 071°03'1 2.4
2017-Nov-15 18:29N 42°21' W 071°01'0 0.2
2017-Nov-15 17:25N 42°21' W 071°01'1 3.3
2017-Nov-15 17:00N 42°22' W 071°03'0 0.0
2017-Nov-15 16:30N 42°22' W 071°03'0 0.4
2017-Nov-15 16:00N 42°22' W 071°03'5 8.7
2017-Nov-15 15:23N 42°20' W 070°56'3 4.0
2017-Nov-15 14:32N 42°20' W 071°00'115.2
2017-Nov-15 14:27N 42°21' W 071°02'0 1.0
2017-Nov-15 14:00N 42°21' W 071°02'4 5.3
2017-Nov-15 13:15N 42°20' W 070°57'417.5
2017-Nov-15 13:00N 42°22' W 071°03'8 0.9
2017-Nov-15 03:44N 42°16' W 070°55'1 3.8
2017-Nov-15 03:20N 42°17' W 070°57'616.3
2017-Nov-15 02:57N 42°22' W 071°02'0 0.5
2017-Nov-15 02:31N 42°21' W 071°02'6 7.6
2017-Nov-15 01:41N 42°18' W 070°55'314.5
2017-Nov-15 01:30N 42°20' W 070°58'3 7.1
2017-Nov-15 01:00N 42°22' W 071°02'6 5.5
2017-Nov-14 23:58N 42°18' W 070°56'613.8
2017-Nov-14 23:30N 42°22' W 071°03'711.7
2017-Nov-14 22:56N 42°18' W 070°55'715.7
2017-Nov-14 22:30N 42°22' W 071°03'1 1.8
2017-Nov-14 22:00N 42°22' W 071°02'811.0
2017-Nov-14 21:17N 42°15' W 070°55'311.2
2017-Nov-14 21:00N 42°19' W 070°56'611.9
2017-Nov-14 20:30N 42°22' W 071°03'4 3.3
2017-Nov-14 19:14N 42°19' W 070°59'418.3
2017-Nov-14 19:00N 42°22' W 071°03'2 3.5
2017-Nov-14 18:30N 42°21' W 071°01'5 6.1
2017-Nov-14 17:36N 42°17' W 070°56'527.2
2017-Nov-14 17:26N 42°20' W 071°00'2 5.5
2017-Nov-14 17:00N 42°22' W 071°03'0 0.0
2017-Nov-14 16:30N 42°22' W 071°03'0 0.8
2017-Nov-14 16:00N 42°22' W 071°02'6 9.2
2017-Nov-14 15:23N 42°19' W 070°56'3 4.3
2017-Nov-14 14:43N 42°16' W 070°55'625.2
2017-Nov-14 14:30N 42°20' W 071°00'2 4.7
2017-Nov-14 14:00N 42°22' W 071°03'610.6
2017-Nov-14 13:24N 42°18' W 070°55'717.4
2017-Nov-14 13:01N 42°22' W 071°03'7 8.5
2017-Nov-14 12:13N 42°18' W 070°55'1 2.5
2017-Nov-14 11:56N 42°19' W 070°56'614.1
2017-Nov-14 11:30N 42°22' W 071°03'712.5
2017-Nov-14 10:58N 42°18' W 070°55'3 4.9
2017-Nov-14 10:24N 42°15' W 070°55'0 0.1
2017-Nov-14 03:41N 42°16' W 070°55'4 9.1
2017-Nov-14 03:13N 42°19' W 070°59'312.4
2017-Nov-14 02:56N 42°22' W 071°02'0 0.4
2017-Nov-14 02:30N 42°22' W 071°02'6 7.0
2017-Nov-14 01:37N 42°18' W 070°55'319.4
2017-Nov-14 01:29N 42°20' W 070°58'3 7.0
2017-Nov-14 01:00N 42°22' W 071°02'6 6.4
2017-Nov-14 00:04N 42°18' W 070°55'518.0
2017-Nov-13 23:49N 42°21' W 071°00'2 6.9
2017-Nov-13 23:30N 42°22' W 071°03'710.5
2017-Nov-13 22:52N 42°18' W 070°55'717.9
2017-Nov-13 22:29N 42°22' W 071°03'1 1.8
2017-Nov-13 21:57N 42°22' W 071°02'  
2017-Nov-11 04:59N 42°15' W 070°58'2 4.7
2017-Nov-11 04:29N 42°16' W 070°55'816.1
2017-Nov-11 04:01N 42°21' W 071°02'5 9.2
2017-Nov-11 03:30N 42°19' W 070°57'4 8.0
2017-Nov-11 03:00N 42°15' W 070°55'713.5
2017-Nov-11 02:30N 42°21' W 071°01'1 2.9
2017-Nov-11 02:00N 42°22' W 071°02'0 0.3
2017-Nov-11 00:44N 42°22' W 071°02'1 0.5
2017-Nov-10 22:55N 42°22' W 071°03'912.3
2017-Nov-10 22:14N 42°15' W 070°55'3 8.2
2017-Nov-10 21:52N 42°18' W 070°55'718.2
2017-Nov-10 21:30N 42°22' W 071°03'610.7
2017-Nov-10 20:59N 42°18' W 070°58'2 3.1
2017-Nov-10 20:20N 42°18' W 070°55'0 1.4
2017-Nov-10 19:59N 42°18' W 070°56'612.8
2017-Nov-10 19:30N 42°22' W 071°03'810.3
2017-Nov-10 18:43N 42°16' W 070°55'210.1
2017-Nov-10 18:29N 42°18' W 070°55'714.2
2017-Nov-10 18:01N 42°22' W 071°03'2 4.4
2017-Nov-10 17:30N 42°21' W 071°00'6 7.5
2017-Nov-10 16:42N 42°16' W 070°56'412.6
2017-Nov-10 16:21N 42°20' W 070°58'412.0
2017-Nov-10 16:00N 42°22' W 071°03'2 3.1
2017-Nov-10 15:30N 42°21' W 071°01'5 5.2
2017-Nov-10 14:38N 42°19' W 070°56'528.8
2017-Nov-10 14:28N 42°21' W 071°01'1 2.1
2017-Nov-10 14:01N 42°22' W 071°02'4 5.4
2017-Nov-10 13:14N 42°20' W 070°57'520.7
2017-Nov-10 13:01N 42°22' W 071°03'7 9.5
2017-Nov-10 12:18N 42°18' W 070°55'1 4.3
2017-Nov-10 11:59N 42°19' W 070°56'510.7
2017-Nov-10 11:30N 42°22' W 071°02'611.6
2017-Nov-10 10:58N 42°18' W 070°55'2 3.7
2017-Nov-10 10:21N 42°16' W 070°55'0 0.1
2017-Nov-10 02:56N 42°15' W 070°55'614.1
2017-Nov-10 02:31N 42°20' W 070°60'3 5.7
2017-Nov-10 02:01N 42°22' W 071°03'916.3
2017-Nov-10 01:29N 42°15' W 070°55'4 8.2
2017-Nov-10 01:00N 42°18' W 070°59'5 9.6
2017-Nov-10 00:30N 42°22' W 071°03'816.3
2017-Nov-10 00:00N 42°16' W 070°55'2 4.6
2017-Nov-09 23:31N 42°18' W 070°55'713.4
2017-Nov-09 23:00N 42°22' W 071°03'4 8.5
2017-Nov-09 22:31N 42°19' W 070°59'4 7.2
2017-Nov-09 22:00N 42°16' W 070°56'815.5
2017-Nov-09 21:30N 42°22' W 071°03'5 9.7
2017-Nov-09 21:00N 42°18' W 070°58'2 3.8
2017-Nov-09 20:23N 42°17' W 070°56'2 4.6
2017-Nov-09 19:58N 42°19' W 070°56'612.9
2017-Nov-09 19:30N 42°22' W 071°03'3 2.4
2017-Nov-09 18:14N 42°20' W 070°59'312.6
2017-Nov-09 18:00N 42°22' W 071°03'3 6.3
2017-Nov-09 17:30N 42°20' W 070°60'4 3.4
2017-Nov-09 16:27N 42°18' W 070°55'715.1
2017-Nov-09 16:00N 42°22' W 071°03'0 0.0
2017-Nov-09 15:30N 42°22' W 071°03'0 0.0
2017-Nov-09 15:00N 42°22' W 071°03'0 0.0
2017-Nov-09 14:30N 42°22' W 071°03'711.9
2017-Nov-09 13:56N 42°18' W 070°55'715.5
2017-Nov-09 13:30N 42°22' W 071°03'712.2
2017-Nov-09 12:56N 42°18' W 070°55'614.8
2017-Nov-09 12:30N 42°22' W 071°03'612.8
2017-Nov-09 12:00N 42°18' W 070°55'3 5.9
2017-Nov-09 11:30N 42°15' W 070°55'3 0.4
2017-Nov-09 03:16N 42°18' W 070°58'515.9
2017-Nov-09 02:58N 42°22' W 071°02'1 1.5
2017-Nov-09 02:30N 42°22' W 071°03'7 7.1
2017-Nov-09 01:34N 42°18' W 070°55'226.0
2017-Nov-09 01:29N 42°20' W 070°57'4 8.1
2017-Nov-09 01:00N 42°22' W 071°02'7 9.1
2017-Nov-09 00:12N 42°16' W 070°55'211.9
2017-Nov-08 23:59N 42°18' W 070°56'613.2
2017-Nov-08 23:30N 42°22' W 071°03'711.5
2017-Nov-08 22:55N 42°18' W 070°55'716.2
2017-Nov-08 22:30N 42°22' W 071°03'1 2.0
2017-Nov-08 22:00N 42°22' W 071°02'816.3
2017-Nov-08 21:30N 42°15' W 070°55'5 8.6
2017-Nov-08 20:55N 42°20' W 070°58'410.1
2017-Nov-08 20:30N 42°22' W 071°03'7 5.6
2017-Nov-08 19:19N 42°17' W 070°57'721.3
2017-Nov-08 19:00N 42°22' W 071°03'2 3.4
2017-Nov-08 18:30N 42°21' W 071°01'5 5.7
2017-Nov-08 17:37N 42°17' W 070°57'622.5
2017-Nov-08 17:21N 42°21' W 071°02'1 1.7
2017-Nov-08 17:00N 42°22' W 071°03'0 0.0
2017-Nov-08 16:30N 42°22' W 071°03'0 0.4
2017-Nov-08 16:00N 42°22' W 071°03'2 4.8
2017-Nov-08 15:30N 42°20' W 071°00'2 1.8
2017-Nov-08 14:36N 42°19' W 070°59'223.6
2017-Nov-08 14:30N 42°21' W 071°01'1 1.9
2017-Nov-08 14:00N 42°21' W 071°02'610.3
2017-Nov-08 13:26N 42°18' W 070°55'715.8
2017-Nov-08 13:00N 42°22' W 071°03'710.0
2017-Nov-08 12:20N 42°18' W 070°55'0 0.5
2017-Nov-08 11:59N 42°18' W 070°55'713.4
2017-Nov-08 11:30N 42°22' W 071°03'711.4
2017-Nov-08 10:55N 42°18' W 070°55'2 0.3
2017-Nov-08 02:33N 42°20' W 070°57'229.1
2017-Nov-08 02:29N 42°20' W 070°60'3 5.2
2017-Nov-08 02:00N 42°22' W 071°03'8 9.0
2017-Nov-08 01:08N 42°16' W 070°56'524.9
2017-Nov-08 00:57N 42°19' W 070°60'3 7.5
2017-Nov-08 00:30N 42°22' W 071°03'816.1
2017-Nov-08 00:00N 42°16' W 070°55'4 5.8
2017-Nov-07 23:23N 42°19' W 070°57'514.1
2017-Nov-07 23:00N 42°22' W 071°03'4 8.0
2017-Nov-07 22:29N 42°19' W 070°59'3 6.8
2017-Nov-07 22:00N 42°16' W 070°56'714.2
2017-Nov-07 21:29N 42°22' W 071°03'4 8.9
2017-Nov-07 21:00N 42°19' W 070°59'4 6.7
2017-Nov-07 20:27N 42°16' W 070°56'2 5.1
2017-Nov-07 20:00N 42°18' W 070°55'713.3
2017-Nov-07 19:30N 42°22' W 071°03'7 7.0
2017-Nov-07 18:33N 42°18' W 070°55'614.0
2017-Nov-07 18:09N 42°21' W 071°02'1 6.9
2017-Nov-07 17:59N 42°22' W 071°03'4 8.1
2017-Nov-07 17:27N 42°19' W 070°59'3 3.1
2017-Nov-07 16:34N 42°18' W 070°55'0 0.1
2017-Nov-07 16:28N 42°18' W 070°55'714.5
2017-Nov-07 16:00N 42°22' W 071°03'0 0.0
2017-Nov-07 15:30N 42°22' W 071°03'0 0.0
2017-Nov-07 15:00N 42°22' W 071°03'0 0.0
2017-Nov-07 14:30N 42°22' W 071°03'5 6.7
2017-Nov-07 13:48N 42°20' W 070°57'516.5
2017-Nov-07 13:30N 42°22' W 071°03'5 7.4
2017-Nov-07 12:53N 42°20' W 070°57'411.4
2017-Nov-07 12:31N 42°22' W 071°03'710.7
2017-Nov-07 11:54N 42°18' W 070°55'0 0.0
2017-Nov-07 02:42N 42°18' W 070°55'420.5
2017-Nov-07 02:30N 42°20' W 070°59'3 5.6
2017-Nov-07 02:00N 42°22' W 071°03'916.8
2017-Nov-07 01:30N 42°15' W 070°55'710.8
2017-Nov-07 00:54N 42°20' W 071°01'2 5.7
2017-Nov-07 00:30N 42°22' W 071°03'816.9
2017-Nov-07 00:00N 42°16' W 070°55'3 5.0
2017-Nov-06 23:29N 42°18' W 070°55'713.9
2017-Nov-06 23:00N 42°22' W 071°03'4 8.3
2017-Nov-06 22:30N 42°19' W 070°59'3 4.6
2017-Nov-06 21:53N 42°18' W 070°55'717.9
2017-Nov-06 21:30N 42°22' W 071°03'8 7.7
2017-Nov-06 20:28N 42°16' W 070°55'  

Dump ship's entire track history